LELN/LEN METAR and TAF weather

Enter ICAO airport designator
Station Type Date Time Source
LELN METAR 2020/12/06 01:30 UTC NOAA

LELN 060130Z AUTO 26003KT 210V340 CAVOK M01/M03 Q1006


Station Type Date Time Source
LELN Decoded METAR 2020/12/06 01:30 UTC NOAA

Leon / Virgen Del Camino, Spain (LELN) 42-35N 005-39W 914M
Dec 05, 2020 - 08:30 PM EST / 2020.12.06 0130 UTC
Wind: from the W (260 degrees) at 3 MPH (3 KT) (direction variable):0
Visibility: greater than 7 mile(s):0
Temperature: 30 F (-1 C)
Dew Point: 26 F (-3 C)
Relative Humidity: 86%
Pressure (altimeter): 29.71 in. Hg (1006 hPa)
ob: LELN 060130Z AUTO 26003KT 210V340 CAVOK M01/M03 Q1006
cycle: 1

Station Type Date Time Source
LELN TAF 2020/12/05 21:27 UTC NOAA

TAF LELN 052000Z 0521/0621 27012KT 9999 SCT040 TX06/0615Z TNM01/0606Z PROB40
TEMPO 0612/0621 3000 RA BKN014

Example: see airport list